Time;durP1;ratioP1;P1;durP2;ratioP2;P2;SDS_P1;SDS_P2;PMS_P1;PMS_P2;Temp;Humidity;BMP_temperature;BMP_pressure;BME280_temperature;BME280_humidity;BME280_pressure;Samples;Min_cycle;Max_cycle;Signal;HPM_P1;HPM_P2
2023/09/19 00:00:02;;;;;;;;;;;16.20;99.90;;;;;;12369333;28;20095;-82
2023/09/19 00:06:04;;;;;;;;;;;16.10;99.90;;;;;;12359087;28;20025;-81
2023/09/19 00:12:06;;;;;;;;;;;16.10;99.90;;;;;;12358049;28;19984;-80
2023/09/19 00:18:11;;;;;;;;;;;16.10;99.90;;;;;;12353277;28;19964;-81
2023/09/19 00:24:13;;;;;;;;;;;16.10;99.90;;;;;;12353867;28;20613;-81
2023/09/19 00:30:16;;;;;;;;;;;16.00;99.90;;;;;;12346971;28;19933;-82
2023/09/19 00:36:18;;;;;;;;;;;16.00;99.90;;;;;;12371628;28;20382;-82
2023/09/19 00:42:20;;;;;;;;;;;16.10;99.90;;;;;;12354426;28;20024;-82
2023/09/19 00:48:22;;;;;;;;;;;16.10;99.90;;;;;;12375837;28;19929;-80
2023/09/19 00:54:25;;;;;;;;;;;16.00;99.90;;;;;;12378801;28;19965;-80
2023/09/19 01:00:28;;;;;;;;;;;16.00;99.90;;;;;;12363473;28;19929;-79
2023/09/19 01:06:31;;;;;;;;;;;16.00;99.90;;;;;;12371589;28;20458;-80
2023/09/19 01:12:51;;;;;;;;;;;16.10;99.90;;;;;;12365522;28;20029;-85
2023/09/19 01:19:05;;;;;;;;;;;16.00;99.90;;;;;;12380254;28;19977;-81
2023/09/19 01:25:16;;;;;;;;;;;16.00;99.90;;;;;;12349455;28;19929;-81
2023/09/19 01:31:19;;;;;;;;;;;16.10;99.90;;;;;;12360079;28;19930;-79
2023/09/19 01:37:25;;;;;;;;;;;16.00;99.90;;;;;;12366487;28;19934;-80
2023/09/19 01:43:30;;;;;;;;;;;16.00;99.90;;;;;;12377058;28;19929;-80
2023/09/19 01:49:36;;;;;;;;;;;16.00;99.90;;;;;;12363846;28;19934;-81
2023/09/19 01:55:45;;;;;;;;;;;15.90;99.90;;;;;;12342455;28;19930;-82
2023/09/19 02:01:47;;;;;;;;;;;15.90;99.90;;;;;;12383135;28;19930;-81
2023/09/19 02:07:50;;;;;;;;;;;15.90;99.90;;;;;;12358371;28;19941;-81
2023/09/19 02:13:54;;;;;;;;;;;15.80;99.90;;;;;;12377333;28;19940;-80
2023/09/19 02:19:56;;;;;;;;;;;15.80;99.90;;;;;;12376997;28;19929;-81
2023/09/19 02:26:00;;;;;;;;;;;15.90;99.90;;;;;;12349098;28;20036;-80
2023/09/19 02:32:02;;;;;;;;;;;15.70;99.90;;;;;;12353971;28;19996;-82
2023/09/19 02:38:07;;;;;;;;;;;15.70;99.90;;;;;;12302767;28;20447;-81
2023/09/19 02:44:09;;;;;;;;;;;15.60;99.90;;;;;;12278109;28;19930;-80
2023/09/19 02:50:12;;;;;;;;;;;15.70;99.90;;;;;;12292225;28;20000;-81
2023/09/19 02:56:15;;;;;;;;;;;15.70;99.90;;;;;;12279525;28;19953;-80
2023/09/19 03:02:18;;;;;;;;;;;15.60;99.90;;;;;;12278214;28;19966;-80
2023/09/19 03:08:20;;;;;;;;;;;15.50;99.90;;;;;;12268146;28;19941;-79
2023/09/19 03:14:23;;;;;;;;;;;15.60;99.90;;;;;;12294424;28;20401;-81
2023/09/19 03:20:27;;;;;;;;;;;15.70;99.90;;;;;;12291888;28;19930;-81
2023/09/19 03:26:29;;;;;;;;;;;15.50;99.90;;;;;;12285394;28;19935;-80
2023/09/19 03:32:30;;;;;;;;;;;15.50;99.90;;;;;;12278038;28;20350;-81
2023/09/19 03:38:34;;;;;;;;;;;15.50;99.90;;;;;;12354441;28;19929;-80
2023/09/19 03:44:35;;;;;;;;;;;15.60;99.90;;;;;;12372941;28;20311;-81
2023/09/19 03:50:37;;;;;;;;;;;15.50;99.90;;;;;;12380385;28;19929;-81
2023/09/19 03:56:39;;;;;;;;;;;15.50;99.90;;;;;;12344337;28;20004;-81
2023/09/19 04:02:41;;;;;;;;;;;15.40;99.90;;;;;;12367965;28;19980;-82
2023/09/19 04:08:44;;;;;;;;;;;15.30;99.90;;;;;;12348403;28;19934;-81
2023/09/19 04:14:46;;;;;;;;;;;15.30;99.90;;;;;;12355123;28;19926;-80
2023/09/19 04:20:51;;;;;;;;;;;15.30;99.90;;;;;;12366168;28;19976;-80
2023/09/19 04:26:53;;;;;;;;;;;15.20;99.90;;;;;;12368091;28;19933;-80
2023/09/19 04:32:55;;;;;;;;;;;15.10;99.90;;;;;;12357738;28;19949;-80
2023/09/19 04:38:57;;;;;;;;;;;15.10;99.90;;;;;;12375547;28;20876;-82
2023/09/19 04:44:59;;;;;;;;;;;15.10;99.90;;;;;;12376369;28;20012;-81
2023/09/19 04:51:01;;;;;;;;;;;15.00;99.90;;;;;;12362023;28;20421;-81
2023/09/19 04:57:05;;;;;;;;;;;15.00;99.90;;;;;;12352199;28;20035;-81
2023/09/19 05:03:08;;;;;;;;;;;14.90;99.90;;;;;;12373488;28;20020;-81
2023/09/19 05:09:10;;;;;;;;;;;14.80;99.90;;;;;;12353437;28;19937;-82
2023/09/19 05:15:12;;;;;;;;;;;14.70;99.90;;;;;;12352042;28;20441;-81
2023/09/19 05:21:14;;;;;;;;;;;14.70;99.90;;;;;;12371199;28;19930;-80
2023/09/19 05:27:16;;;;;;;;;;;14.60;99.90;;;;;;12360459;28;19937;-80
2023/09/19 05:33:18;;;;;;;;;;;14.50;99.90;;;;;;12368920;28;19930;-80
2023/09/19 05:39:20;;;;;;;;;;;14.50;99.90;;;;;;12379909;28;19977;-82
2023/09/19 05:45:22;;;;;;;;;;;14.50;99.90;;;;;;12376488;28;20406;-79
2023/09/19 05:51:25;;;;;;;;;;;14.40;99.90;;;;;;12368565;28;19988;-82
2023/09/19 05:57:27;;;;;;;;;;;14.50;99.90;;;;;;12374813;28;20569;-81
2023/09/19 06:03:30;;;;;;;;;;;14.40;99.90;;;;;;12369861;28;19937;-82
2023/09/19 12:18:47;;;;;;;;;;;18.20;1.00;;;;;;12335131;28;19968;-85
2023/09/19 12:24:50;;;;;;;;;;;17.90;1.00;;;;;;12350138;28;19941;-83
2023/09/19 12:30:55;;;;;;;;;;;18.00;1.00;;;;;;12355683;28;20072;-84
2023/09/19 12:37:29;;;;;;;;;;;18.40;1.00;;;;;;12369050;28;19933;-83
2023/09/19 12:43:30;;;;;;;;;;;18.30;1.00;;;;;;12369552;28;19964;-81
2023/09/19 12:49:32;;;;;;;;;;;18.40;1.00;;;;;;12350553;28;20342;-83
2023/09/19 12:55:35;;;;;;;;;;;18.80;1.00;;;;;;12356430;28;20393;-82
2023/09/19 13:01:43;;;;;;;;;;;19.20;1.00;;;;;;12388237;28;19933;-84
2023/09/19 13:07:49;;;;;;;;;;;18.90;1.00;;;;;;12367946;28;19934;-83
2023/09/19 13:14:11;;;;;;;;;;;19.00;1.00;;;;;;12383509;28;20960;-85
2023/09/19 13:20:27;;;;;;;;;;;19.40;1.00;;;;;;12377316;28;19929;-84
2023/09/19 13:26:28;;;;;;;;;;;19.80;99.90;;;;;;12362240;28;20356;-83
2023/09/19 13:32:31;;;;;;;;;;;19.70;99.90;;;;;;12355595;28;19926;-84
2023/09/19 13:38:34;;;;;;;;;;;19.60;99.90;;;;;;12360905;28;20260;-85
2023/09/19 13:44:36;;;;;;;;;;;19.40;99.90;;;;;;12350982;28;19929;-83
2023/09/19 13:50:41;;;;;;;;;;;19.20;99.90;;;;;;12342753;28;19925;-82
2023/09/19 13:56:44;;;;;;;;;;;19.10;99.90;;;;;;12353476;28;19957;-81
2023/09/19 14:02:47;;;;;;;;;;;18.90;99.90;;;;;;12361124;28;20522;-85
2023/09/19 14:08:50;;;;;;;;;;;18.70;99.90;;;;;;12353562;28;20028;-84
2023/09/19 14:14:52;;;;;;;;;;;18.70;99.90;;;;;;12344229;28;19937;-84
2023/09/19 14:20:54;;;;;;;;;;;18.80;1.00;;;;;;12366437;28;20964;-83
2023/09/19 14:26:56;;;;;;;;;;;18.80;1.00;;;;;;12346153;28;19934;-82
2023/09/19 14:32:58;;;;;;;;;;;19.10;1.00;;;;;;12360888;28;19933;-82
2023/09/19 14:39:00;;;;;;;;;;;19.20;99.90;;;;;;12370095;28;20283;-85
2023/09/19 14:45:02;;;;;;;;;;;19.10;99.90;;;;;;12368242;28;19983;-84
2023/09/19 14:51:05;;;;;;;;;;;19.10;99.90;;;;;;12349287;28;19941;-82
2023/09/19 14:57:08;;;;;;;;;;;19.50;99.90;;;;;;12374033;28;20386;-84
2023/09/19 15:03:11;;;;;;;;;;;19.50;99.90;;;;;;12376893;28;20371;-85
2023/09/19 15:09:13;;;;;;;;;;;19.50;99.90;;;;;;12356073;28;20942;-84
2023/09/19 15:15:15;;;;;;;;;;;19.10;1.00;;;;;;12372445;28;20386;-83
2023/09/19 15:21:17;;;;;;;;;;;18.90;1.00;;;;;;12381225;28;19949;-84
2023/09/19 15:27:19;;;;;;;;;;;18.80;1.00;;;;;;12369570;28;20004;-85
2023/09/19 15:33:21;;;;;;;;;;;18.80;1.00;;;;;;12327587;28;19961;-85
2023/09/19 15:39:23;;;;;;;;;;;18.70;1.00;;;;;;12339146;28;19969;-84
2023/09/19 15:45:25;;;;;;;;;;;18.60;1.00;;;;;;12340751;28;19959;-83
2023/09/19 15:51:27;;;;;;;;;;;18.60;1.00;;;;;;12359438;28;19926;-85
2023/09/19 15:57:30;;;;;;;;;;;18.60;1.00;;;;;;12343996;28;19929;-82
2023/09/19 16:03:32;;;;;;;;;;;18.60;1.00;;;;;;12359135;28;19936;-83
2023/09/19 16:09:35;;;;;;;;;;;18.60;1.00;;;;;;12342873;28;19930;-82
2023/09/19 16:15:41;;;;;;;;;;;18.60;1.00;;;;;;12353893;28;19934;-84
2023/09/19 16:21:43;;;;;;;;;;;18.80;1.00;;;;;;12341643;28;20095;-81
2023/09/19 16:27:46;;;;;;;;;;;18.60;99.90;;;;;;12357943;28;19934;-82
2023/09/19 16:33:47;;;;;;;;;;;18.50;1.00;;;;;;12355766;28;20461;-85
2023/09/19 16:39:51;;;;;;;;;;;18.40;1.00;;;;;;12377728;28;19930;-84
2023/09/19 16:45:55;;;;;;;;;;;18.40;1.00;;;;;;12373810;28;19941;-84
2023/09/19 16:51:57;;;;;;;;;;;18.30;1.00;;;;;;12369962;28;20612;-84
2023/09/19 16:57:59;;;;;;;;;;;18.20;1.00;;;;;;12352712;28;19930;-85
2023/09/19 17:04:02;;;;;;;;;;;18.10;1.00;;;;;;12362792;28;20360;-84
2023/09/19 17:10:05;;;;;;;;;;;18.10;1.00;;;;;;12352296;28;19930;-86
2023/09/19 17:16:08;;;;;;;;;;;18.10;1.00;;;;;;12376198;28;19941;-85
2023/09/19 17:22:10;;;;;;;;;;;18.10;1.00;;;;;;12356227;28;19980;-81
2023/09/19 17:28:12;;;;;;;;;;;18.10;1.00;;;;;;12349903;28;19971;-83
2023/09/19 17:34:15;;;;;;;;;;;18.10;1.00;;;;;;12347123;28;20008;-85
2023/09/19 17:40:17;;;;;;;;;;;18.10;1.00;;;;;;12363249;28;19930;-85
2023/09/19 17:46:20;;;;;;;;;;;18.10;1.00;;;;;;12356338;28;19941;-85
2023/09/19 17:52:22;;;;;;;;;;;18.10;1.00;;;;;;12335517;28;20258;-84
2023/09/19 17:58:25;;;;;;;;;;;18.10;1.00;;;;;;12365285;28;19952;-85
2023/09/19 18:04:28;;;;;;;;;;;18.00;1.00;;;;;;12352651;28;20416;-85
2023/09/19 18:10:29;;;;;;;;;;;18.00;1.00;;;;;;12363722;28;19967;-84
2023/09/19 18:16:31;;;;;;;;;;;17.90;1.00;;;;;;12348790;28;19934;-84
2023/09/19 18:22:34;;;;;;;;;;;18.00;1.00;;;;;;12362179;28;20412;-84
2023/09/19 18:28:38;;;;;;;;;;;17.90;1.00;;;;;;12348038;28;19992;-85
2023/09/19 18:34:41;;;;;;;;;;;17.90;1.00;;;;;;12375443;28;20591;-83
2023/09/19 18:40:43;;;;;;;;;;;17.90;1.00;;;;;;12369740;28;19936;-83
2023/09/19 18:46:47;;;;;;;;;;;17.90;1.00;;;;;;12367280;28;19933;-83
2023/09/19 18:52:50;;;;;;;;;;;17.80;1.00;;;;;;12369289;28;20016;-83
2023/09/19 18:58:52;;;;;;;;;;;17.70;1.00;;;;;;12357587;28;19929;-83
2023/09/19 19:04:55;;;;;;;;;;;17.70;1.00;;;;;;12377990;28;20293;-82
2023/09/19 19:10:57;;;;;;;;;;;17.70;1.00;;;;;;12356673;28;20555;-84
2023/09/19 19:17:00;;;;;;;;;;;17.80;1.00;;;;;;12375969;28;19937;-82
2023/09/19 19:23:02;;;;;;;;;;;17.70;1.00;;;;;;12355598;28;19965;-82
2023/09/19 19:29:04;;;;;;;;;;;17.70;1.00;;;;;;12362659;28;20386;-82
2023/09/19 19:35:06;;;;;;;;;;;17.70;1.00;;;;;;12352417;28;20029;-83
2023/09/19 19:41:08;;;;;;;;;;;17.70;1.00;;;;;;12362712;28;20389;-82
2023/09/19 19:47:12;;;;;;;;;;;17.70;1.00;;;;;;12358916;28;20305;-83
2023/09/19 19:53:14;;;;;;;;;;;17.70;1.00;;;;;;12346256;28;19929;-84
2023/09/19 19:59:18;;;;;;;;;;;17.70;1.00;;;;;;12336578;28;21723;-84
2023/09/19 20:05:20;;;;;;;;;;;17.70;1.00;;;;;;12339564;28;19930;-84
2023/09/19 20:11:28;;;;;;;;;;;17.70;1.00;;;;;;12354517;28;20781;-84
2023/09/19 20:17:30;;;;;;;;;;;17.70;1.00;;;;;;12360797;28;20059;-83
2023/09/19 20:23:32;;;;;;;;;;;17.60;1.00;;;;;;12350360;28;20427;-83
2023/09/19 20:29:37;;;;;;;;;;;17.60;1.00;;;;;;12344417;28;19933;-85
2023/09/19 20:35:40;;;;;;;;;;;17.50;1.00;;;;;;12351536;28;20037;-86
2023/09/19 20:41:41;;;;;;;;;;;17.50;1.00;;;;;;12357223;28;19930;-83
2023/09/19 20:47:43;;;;;;;;;;;17.40;1.00;;;;;;12358674;28;19933;-83
2023/09/19 20:53:46;;;;;;;;;;;17.30;1.00;;;;;;12346400;28;20479;-85
2023/09/19 20:59:48;;;;;;;;;;;17.20;1.00;;;;;;12342751;28;19925;-82
2023/09/19 21:05:58;;;;;;;;;;;17.30;1.00;;;;;;12341312;28;19926;-84
2023/09/19 21:12:01;;;;;;;;;;;17.20;1.00;;;;;;12371243;28;19983;-84
2023/09/19 21:18:04;;;;;;;;;;;17.20;1.00;;;;;;12365017;28;20496;-82
2023/09/19 21:24:09;;;;;;;;;;;17.20;1.00;;;;;;12357926;28;19941;-83
2023/09/19 21:30:12;;;;;;;;;;;17.20;1.00;;;;;;12340873;28;20302;-83
2023/09/19 21:36:19;;;;;;;;;;;17.20;1.00;;;;;;12348395;28;19937;-83
2023/09/19 21:42:22;;;;;;;;;;;17.20;1.00;;;;;;12356499;28;19930;-84
2023/09/19 21:48:24;;;;;;;;;;;17.30;1.00;;;;;;12357514;28;20020;-82
2023/09/19 21:54:26;;;;;;;;;;;17.20;1.00;;;;;;12357494;28;19981;-83
2023/09/19 22:00:35;;;;;;;;;;;17.20;1.00;;;;;;12344511;28;20012;-84
2023/09/19 22:06:38;;;;;;;;;;;17.30;1.00;;;;;;12354279;28;19929;-83
2023/09/19 22:12:40;;;;;;;;;;;17.30;1.00;;;;;;12351411;28;20373;-83
2023/09/19 22:18:42;;;;;;;;;;;17.30;1.00;;;;;;12336643;28;19929;-82
2023/09/19 22:24:44;;;;;;;;;;;17.20;1.00;;;;;;12347194;28;19965;-83
2023/09/19 22:30:46;;;;;;;;;;;17.30;1.00;;;;;;12358731;28;19969;-83
2023/09/19 22:36:54;;;;;;;;;;;17.20;1.00;;;;;;12355087;28;19965;-83
2023/09/19 22:42:56;;;;;;;;;;;17.10;1.00;;;;;;12355959;28;20007;-83
2023/09/19 22:48:57;;;;;;;;;;;17.20;1.00;;;;;;12367609;28;20335;-83
2023/09/19 22:54:59;;;;;;;;;;;17.20;1.00;;;;;;12356202;28;20028;-83
2023/09/19 23:07:26;;;;;;;;;;;17.20;1.00;;;;;;12368248;28;21501;-84
2023/09/19 23:13:30;;;;;;;;;;;17.20;1.00;;;;;;12360908;28;20020;-83
2023/09/19 23:19:32;;;;;;;;;;;17.20;1.00;;;;;;12350847;28;20362;-85
2023/09/19 23:25:34;;;;;;;;;;;17.20;1.00;;;;;;12349835;28;19933;-84
2023/09/19 23:31:37;;;;;;;;;;;17.20;10.60;;;;;;12335130;28;19929;-84
2023/09/19 23:37:40;;;;;;;;;;;17.20;9.10;;;;;;12339461;28;20397;-84
2023/09/19 23:43:41;;;;;;;;;;;17.10;1.00;;;;;;12340421;28;20157;-84
2023/09/19 23:49:46;;;;;;;;;;;17.20;6.80;;;;;;12334924;28;19929;-85
2023/09/19 23:55:48;;;;;;;;;;;17.20;1.00;;;;;;12346071;28;19965;-83
